createdAt,value
2019-04-25T00:00:38.228Z,99.99
2019-04-25T00:01:38.354Z,99.99
2019-04-25T00:02:38.299Z,99.99
2019-04-25T00:03:38.398Z,99.99
2019-04-25T00:04:38.748Z,99.99
2019-04-25T00:05:38.758Z,99.99
2019-04-25T00:06:38.619Z,99.99
2019-04-25T00:07:38.722Z,99.99
2019-04-25T00:08:38.783Z,99.99
2019-04-25T00:09:38.943Z,99.99
2019-04-25T00:10:38.027Z,99.99
2019-04-25T00:11:38.002Z,99.99
2019-04-25T00:12:37.981Z,99.99
2019-04-25T00:13:38.017Z,99.99
2019-04-25T00:14:38.076Z,99.99
2019-04-25T00:15:38.291Z,99.99
2019-04-25T00:16:38.702Z,99.99
2019-04-25T00:17:38.580Z,99.99
2019-04-25T00:18:38.648Z,99.99
2019-04-25T00:19:38.651Z,99.99
2019-04-25T00:20:38.812Z,99.99
2019-04-25T00:21:38.235Z,99.99
2019-04-25T00:22:39.194Z,99.99
2019-04-25T00:23:37.751Z,99.99
2019-04-25T00:24:37.735Z,99.99
2019-04-25T00:25:37.724Z,99.99
2019-04-25T00:26:37.690Z,99.99
2019-04-25T00:27:37.670Z,99.99
2019-04-25T00:28:37.650Z,99.99
2019-04-25T00:29:37.630Z,99.99
2019-04-25T00:30:37.629Z,99.99
2019-04-25T00:31:37.594Z,99.99
2019-04-25T00:32:37.571Z,99.99
2019-04-25T00:33:37.551Z,99.99
2019-04-25T00:34:37.538Z,99.99
2019-04-25T00:35:37.512Z,99.99
2019-04-25T00:36:39.042Z,99.99
2019-04-25T00:37:37.470Z,99.99
2019-04-25T00:38:37.447Z,99.99
2019-04-25T00:39:37.427Z,99.99
2019-04-25T00:40:37.407Z,99.99
2019-04-25T00:41:37.402Z,99.99
2019-04-25T00:42:37.367Z,99.99
2019-04-25T00:43:37.349Z,99.99
2019-04-25T00:44:37.331Z,99.99
2019-04-25T00:45:37.307Z,99.99
2019-04-25T00:46:37.301Z,99.99
2019-04-25T00:47:37.265Z,99.99
2019-04-25T00:48:37.244Z,99.99
2019-04-25T00:49:37.226Z,99.99
2019-04-25T00:50:37.206Z,99.99
2019-04-25T00:51:37.199Z,99.99
2019-04-25T00:52:37.166Z,99.99
2019-04-25T00:53:37.146Z,99.99
2019-04-25T00:54:37.125Z,99.99
2019-04-25T00:55:37.104Z,99.99
2019-04-25T00:56:37.101Z,99.99
2019-04-25T00:57:37.067Z,99.99
2019-04-25T00:58:37.045Z,99.99
2019-04-25T00:59:37.023Z,99.99
2019-04-25T01:00:37.001Z,99.99
2019-04-25T01:01:36.984Z,99.99
2019-04-25T01:02:36.974Z,99.99
2019-04-25T01:03:36.939Z,99.99
2019-04-25T01:04:36.942Z,99.99
2019-04-25T01:05:36.902Z,99.99
2019-04-25T01:06:36.879Z,99.99
2019-04-25T01:07:36.875Z,99.99
2019-04-25T01:08:36.844Z,99.99
2019-04-25T01:09:36.819Z,99.99
2019-04-25T01:10:36.797Z,99.99
2019-04-25T01:11:36.778Z,99.99
2019-04-25T01:12:36.763Z,99.99
2019-04-25T01:13:36.768Z,99.99
2019-04-25T01:14:36.717Z,99.99
2019-04-25T01:15:36.695Z,99.99
2019-04-25T01:16:36.676Z,99.99
2019-04-25T01:17:36.662Z,99.99
2019-04-25T01:18:37.468Z,99.99
2019-04-25T01:19:36.616Z,99.99
2019-04-25T01:20:36.594Z,99.99
2019-04-25T01:21:36.577Z,99.99
2019-04-25T01:22:36.554Z,99.99
2019-04-25T01:23:36.552Z,99.99
2019-04-25T01:24:36.513Z,99.99
2019-04-25T01:25:41.001Z,99.99
2019-04-25T01:26:36.474Z,99.99
2019-04-25T01:27:36.450Z,99.99
2019-04-25T01:28:36.448Z,99.99
2019-04-25T01:29:36.413Z,99.99
2019-04-25T01:30:36.393Z,99.99
2019-04-25T01:31:36.371Z,99.99
2019-04-25T06:14:25.145Z,99.99
2019-04-25T06:15:24.996Z,99.99
2019-04-25T06:16:27.038Z,99.99
2019-04-25T06:17:24.801Z,99.99
2019-04-25T06:18:24.844Z,99.99
2019-04-25T06:19:25.259Z,99.99
2019-04-25T06:20:24.693Z,99.99
2019-04-25T06:21:24.591Z,99.99
2019-04-25T06:22:24.661Z,99.99
2019-04-25T06:23:24.583Z,99.99
2019-04-25T06:24:25.540Z,99.99
2019-04-25T06:25:29.313Z,99.99
2019-04-25T06:26:34.106Z,99.99
2019-04-25T06:27:24.346Z,99.99
2019-04-25T06:28:24.008Z,99.99
2019-04-25T06:29:24.528Z,99.99
2019-04-25T06:30:24.888Z,99.99
2019-04-25T06:31:26.227Z,99.99
2019-04-25T06:32:24.969Z,99.99
2019-04-25T06:33:24.687Z,99.99
2019-04-25T06:34:25.407Z,99.99
2019-04-25T06:35:25.190Z,99.99
2019-04-25T06:36:24.562Z,99.99
2019-04-25T06:37:24.903Z,99.99
2019-04-25T06:38:26.879Z,99.99
2019-04-25T06:39:24.405Z,99.04
2019-04-25T06:40:24.170Z,99.99
2019-04-25T06:41:25.620Z,99.43
2019-04-25T06:42:24.795Z,97.03
2019-04-25T06:43:24.626Z,99.04
2019-04-25T06:44:24.358Z,98.85
2019-04-25T06:45:25.237Z,98.75
2019-04-25T06:46:24.816Z,98.94
2019-04-25T06:47:24.809Z,96.75
2019-04-25T06:48:25.023Z,97.80
2019-04-25T06:49:25.483Z,98.18
2019-04-25T06:50:24.864Z,99.43
2019-04-25T06:51:25.602Z,96.27
2019-04-25T06:52:27.722Z,96.08
2019-04-25T06:53:25.644Z,95.89
2019-04-25T06:54:25.383Z,95.03
2019-04-25T06:55:25.872Z,96.27
2019-04-25T06:56:24.970Z,95.61
2019-04-25T06:57:24.445Z,97.61
2019-04-25T06:58:25.649Z,98.47
2019-04-25T06:59:25.919Z,95.32
2019-04-25T07:00:24.942Z,94.93
2019-04-25T07:01:25.127Z,95.51
2019-04-25T07:02:25.362Z,94.70
2019-04-25T07:03:24.879Z,93.26
2019-04-25T07:04:25.476Z,93.36
2019-04-25T07:05:30.987Z,92.88
2019-04-25T07:06:24.850Z,93.07
2019-04-25T07:07:24.500Z,93.07
2019-04-25T07:08:25.415Z,94.60
2019-04-25T07:09:24.431Z,91.83
2019-04-25T07:10:24.159Z,92.40
2019-04-25T07:11:24.867Z,93.07
2019-04-25T07:12:26.566Z,92.30
2019-04-25T07:13:24.705Z,91.45
2019-04-25T07:14:25.488Z,92.07
2019-04-25T07:15:26.586Z,92.74
2019-04-25T07:16:24.062Z,91.78
2019-04-25T07:17:24.210Z,90.73
2019-04-25T07:18:24.797Z,91.53
2019-04-25T07:19:26.635Z,91.53
2019-04-25T07:20:24.881Z,89.86
2019-04-25T07:21:24.028Z,88.90
2019-04-25T07:22:23.914Z,89.09
2019-04-25T07:23:23.670Z,89.04
2019-04-25T07:24:24.830Z,88.85
2019-04-25T07:25:24.986Z,88.13
2019-04-25T07:26:24.153Z,87.47
2019-04-25T07:27:24.560Z,88.04
2019-04-25T07:28:27.142Z,89.00
2019-04-25T07:29:24.791Z,88.13
2019-04-25T07:35:20.715Z,87.71
2019-04-25T07:36:20.918Z,86.80
2019-04-25T07:37:20.137Z,87.47
2019-04-25T07:38:20.070Z,86.57
2019-04-25T07:39:20.078Z,85.80
2019-04-25T07:40:20.715Z,85.89
2019-04-25T07:41:20.031Z,86.66
2019-04-25T07:42:20.042Z,86.13
2019-04-25T07:43:20.007Z,85.13
2019-04-25T07:44:28.484Z,86.04
2019-04-25T07:45:19.990Z,86.61
2019-04-25T07:46:23.719Z,86.85
2019-04-25T07:47:19.968Z,85.71
2019-04-25T07:48:22.609Z,85.99
2019-04-25T07:49:19.931Z,85.51
2019-04-25T07:50:19.990Z,84.31
2019-04-25T07:51:19.894Z,84.31
2019-04-25T07:52:19.909Z,84.55
2019-04-25T07:53:19.875Z,84.27
2019-04-25T07:54:19.870Z,85.65
2019-04-25T07:55:19.827Z,85.36
2019-04-25T07:56:19.794Z,84.79
2019-04-25T07:57:19.761Z,84.17
2019-04-25T08:07:46.815Z,86.85
2019-04-25T08:08:46.813Z,87.81
2019-04-25T08:09:50.569Z,87.43
2019-04-25T08:10:46.760Z,85.80
2019-04-25T08:11:46.759Z,87.33
2019-04-25T08:12:47.490Z,86.08
2019-04-25T08:17:38.209Z,86.94
2019-04-25T08:18:37.035Z,85.80
2019-04-25T08:19:37.180Z,84.79
2019-04-25T08:20:37.076Z,84.02
2019-04-25T08:21:36.737Z,83.87
2019-04-25T08:22:50.156Z,83.59
2019-04-25T08:23:37.943Z,83.68
2019-04-25T08:24:37.218Z,83.15
2019-04-25T08:25:39.262Z,81.52
2019-04-25T08:26:37.522Z,81.62
2019-04-25T08:27:36.760Z,81.43
2019-04-25T08:28:50.174Z,81.81
2019-04-25T08:29:39.408Z,83.58
2019-04-25T08:30:36.961Z,81.56
2019-04-25T08:31:37.658Z,82.65
2019-04-25T08:32:37.591Z,80.93
2019-04-25T08:33:36.912Z,79.78
2019-04-25T08:34:37.300Z,80.45
2019-04-25T08:35:36.622Z,79.97
2019-04-25T08:36:38.439Z,78.44
2019-04-25T08:37:36.652Z,78.19
2019-04-25T08:38:36.437Z,77.51
2019-04-25T08:39:38.083Z,77.65
2019-04-25T08:40:37.757Z,76.65
2019-04-25T08:41:37.015Z,75.63
2019-04-25T08:42:36.808Z,75.82
2019-04-25T08:43:39.095Z,75.57
2019-04-25T08:44:36.947Z,73.75
2019-04-25T08:45:37.396Z,75.38
2019-04-25T08:46:37.268Z,74.13
2019-04-25T08:47:37.309Z,73.37
2019-04-25T08:48:37.033Z,72.50
2019-04-25T08:49:36.959Z,73.11
2019-04-25T08:50:39.294Z,72.31
2019-04-25T08:51:36.315Z,71.73
2019-04-25T08:52:36.412Z,71.25
2019-04-25T08:53:36.604Z,72.60
2019-04-25T08:54:40.707Z,73.52
2019-04-25T08:55:37.008Z,72.18
2019-04-25T08:56:36.467Z,72.28
2019-04-25T08:57:36.277Z,71.98
2019-04-25T08:58:36.541Z,72.85
2019-04-25T08:59:42.544Z,74.58
2019-04-25T09:00:36.961Z,75.15
2019-04-25T09:01:37.937Z,74.87
2019-04-25T09:02:37.545Z,73.10
2019-04-25T09:03:37.930Z,73.30
2019-04-25T09:04:36.893Z,72.81
2019-04-25T09:05:37.376Z,73.87
2019-04-25T09:06:37.274Z,74.44
2019-04-25T09:07:37.730Z,75.60
2019-04-25T09:08:38.098Z,75.50
2019-04-25T09:09:37.608Z,76.23
2019-04-25T09:10:38.401Z,76.81
2019-04-25T09:11:37.976Z,76.07
2019-04-25T09:12:36.562Z,75.56
2019-04-25T09:13:37.402Z,75.65
2019-04-25T09:14:36.819Z,75.85
2019-04-25T09:15:36.986Z,75.56
2019-04-25T09:16:36.691Z,76.42
2019-04-25T09:17:37.195Z,76.67
2019-04-25T09:18:36.975Z,77.15
2019-04-25T09:19:37.527Z,75.90
2019-04-25T09:20:39.168Z,77.48
2019-04-25T09:21:36.583Z,77.38
2019-04-25T09:22:37.424Z,78.34
2019-04-25T09:23:36.529Z,76.52
2019-04-25T09:24:36.840Z,75.08
2019-04-25T09:25:36.704Z,75.95
2019-04-25T09:26:36.898Z,77.38
2019-04-25T09:27:39.149Z,77.13
2019-04-25T09:28:38.032Z,76.17
2019-04-25T09:29:36.706Z,75.21
2019-04-25T09:30:36.857Z,76.27
2019-04-25T09:31:37.516Z,76.07
2019-04-25T09:32:35.867Z,77.51
2019-04-25T09:33:36.375Z,76.17
2019-04-25T09:34:35.787Z,76.94
2019-04-25T09:35:36.657Z,75.50
2019-04-25T09:36:36.386Z,75.45
2019-04-25T09:37:36.653Z,74.68
2019-04-25T09:38:36.087Z,75.35
2019-04-25T09:39:36.868Z,74.58
2019-04-25T09:40:36.138Z,74.77
2019-04-25T09:41:37.851Z,74.58
2019-04-25T09:42:35.709Z,73.27
2019-04-25T09:43:37.303Z,71.77
2019-04-25T09:44:38.016Z,73.21
2019-04-25T09:45:36.129Z,72.06
2019-04-25T09:46:36.291Z,71.42
2019-04-25T09:47:35.782Z,72.03
2019-04-25T09:48:36.303Z,69.63
2019-04-25T09:49:35.571Z,68.48
2019-04-25T09:50:35.654Z,69.98
2019-04-25T09:51:36.028Z,69.98
2019-04-25T09:52:36.100Z,69.02
2019-04-25T09:53:40.065Z,67.38
2019-04-25T09:54:36.323Z,67.96
2019-04-25T09:55:37.545Z,67.10
2019-04-25T09:56:36.558Z,67.38
2019-04-25T09:57:36.337Z,67.77
2019-04-25T09:58:36.574Z,66.81
2019-04-25T09:59:37.387Z,67.51
2019-04-25T10:00:36.506Z,66.91
2019-04-25T10:01:36.504Z,67.48
2019-04-25T10:02:35.896Z,66.52
2019-04-25T10:03:36.556Z,67.38
2019-04-25T10:04:35.906Z,66.81
2019-04-25T10:05:38.355Z,66.97
2019-04-25T10:06:35.402Z,67.38
2019-04-25T10:07:37.239Z,66.65
2019-04-25T10:08:36.870Z,65.69
2019-04-25T10:09:35.337Z,64.63
2019-04-25T10:10:36.204Z,64.82
2019-04-25T10:11:39.971Z,65.78
2019-04-25T10:12:37.238Z,68.38
2019-04-25T10:13:35.384Z,65.97
2019-04-25T10:14:36.758Z,65.50
2019-04-25T10:15:37.449Z,65.59
2019-04-25T10:16:35.907Z,66.36
2019-04-25T10:17:37.591Z,65.08
2019-04-25T10:18:37.006Z,63.73
2019-04-25T10:19:36.952Z,63.54
2019-04-25T10:20:37.551Z,64.40
2019-04-25T10:21:37.934Z,64.12
2019-04-25T10:22:35.897Z,64.50
2019-04-25T10:23:35.075Z,65.27
2019-04-25T10:24:35.031Z,65.11
2019-04-25T10:32:38.509Z,61.29
2019-04-25T10:33:38.717Z,62.35
2019-04-25T10:34:37.868Z,61.19
2019-04-25T10:35:48.068Z,59.47
2019-04-25T10:36:39.853Z,59.85
2019-04-25T10:37:37.856Z,60.14
2019-04-25T10:38:39.329Z,60.24
2019-04-25T10:39:39.173Z,60.75
2019-04-25T10:40:38.483Z,61.32
2019-04-25T10:41:39.697Z,62.96
2019-04-25T10:42:38.898Z,62.19
2019-04-25T10:43:37.820Z,62.12
2019-04-25T10:44:37.801Z,61.80
2019-04-25T10:45:38.476Z,61.80
2019-04-25T10:46:37.863Z,61.49
2019-04-25T10:47:40.073Z,62.09
2019-04-25T10:48:39.902Z,62.38
2019-04-25T10:49:39.846Z,62.22
2019-04-25T10:50:40.002Z,61.55
2019-04-25T10:51:38.632Z,61.32
2019-04-25T10:52:44.499Z,61.61
2019-04-25T10:53:37.753Z,62.48
2019-04-25T10:54:37.657Z,61.32
2019-04-25T10:55:37.620Z,62.38
2019-04-25T11:02:43.204Z,62.25
2019-04-25T11:03:42.697Z,62.35
2019-04-25T11:04:42.223Z,61.38
2019-04-25T11:05:45.196Z,60.55
2019-04-25T11:06:45.399Z,59.48
2019-04-25T11:07:42.787Z,59.20
2019-04-25T11:08:43.723Z,59.39
2019-04-25T11:09:44.954Z,59.03
2019-04-25T11:10:50.002Z,59.55
2019-04-25T11:11:42.002Z,58.17
2019-04-25T11:12:42.833Z,58.04
2019-04-25T11:13:41.979Z,58.17
2019-04-25T11:14:42.217Z,57.87
2019-04-25T11:15:42.774Z,56.58
2019-04-25T11:16:42.854Z,54.97
2019-04-25T11:17:42.606Z,53.74
2019-04-25T11:18:43.497Z,54.10
2019-04-25T11:19:44.025Z,54.49
2019-04-25T11:20:43.077Z,55.52
2019-04-25T11:21:42.709Z,56.26
2019-04-25T11:22:43.474Z,55.27
2019-04-25T11:23:44.266Z,56.59
2019-04-25T11:24:42.382Z,56.66
2019-04-25T11:25:42.952Z,57.14
2019-04-25T11:26:42.823Z,57.05
2019-04-25T11:27:43.743Z,57.82
2019-04-25T11:28:42.671Z,58.40
2019-04-25T11:29:42.511Z,58.78
2019-04-25T11:30:43.581Z,58.88
2019-04-25T11:31:41.765Z,59.48
2019-04-25T11:32:42.166Z,59.68
2019-04-25T11:33:41.744Z,57.85
2019-04-25T11:34:43.381Z,58.04
2019-04-25T11:35:41.720Z,58.52
2019-04-25T11:36:41.713Z,59.58
2019-04-25T11:37:43.111Z,59.48
2019-04-25T11:38:41.685Z,59.58
2019-04-25T11:39:42.672Z,60.77
2019-04-25T11:40:43.628Z,57.94
2019-04-25T11:41:41.655Z,58.04
2019-04-25T11:42:41.864Z,58.01
2019-04-25T11:43:43.501Z,58.40
2019-04-25T11:44:42.814Z,59.75
2019-04-25T11:45:41.607Z,56.98
2019-04-25T11:46:43.445Z,58.04
2019-04-25T11:47:41.581Z,58.14
2019-04-25T11:48:43.249Z,56.49
2019-04-25T11:49:42.283Z,57.14
2019-04-25T11:50:44.065Z,56.09
2019-04-25T11:51:41.817Z,56.35
2019-04-25T11:52:41.526Z,56.09
2019-04-25T11:53:41.514Z,56.66
2019-04-25T11:54:41.505Z,55.22
2019-04-25T11:55:41.510Z,54.96
2019-04-25T11:56:42.671Z,54.47
2019-04-25T11:57:43.929Z,56.21
2019-04-25T11:58:43.490Z,56.14
2019-04-25T11:59:42.003Z,56.62
2019-04-25T12:00:42.073Z,56.24
2019-04-25T12:01:42.530Z,55.44
2019-04-25T12:02:41.411Z,56.21
2019-04-25T12:03:41.399Z,56.21
2019-04-25T12:04:42.678Z,55.22
2019-04-25T12:05:42.956Z,56.09
2019-04-25T12:06:41.366Z,56.69
2019-04-25T12:07:41.355Z,56.40
2019-04-25T12:08:41.343Z,55.92
2019-04-25T12:09:41.336Z,55.05
2019-04-25T12:10:41.334Z,55.08
2019-04-25T12:11:41.311Z,56.21
2019-04-25T12:12:41.299Z,55.92
2019-04-25T12:13:41.288Z,54.76
2019-04-25T12:14:41.278Z,55.54
2019-04-25T12:15:41.285Z,56.01
2019-04-25T12:16:41.252Z,54.86
2019-04-25T12:17:41.244Z,54.76
2019-04-25T12:18:41.234Z,55.24
2019-04-25T12:19:41.221Z,55.54
2019-04-25T12:20:41.209Z,56.04
2019-04-25T12:21:41.212Z,56.04
2019-04-25T12:22:41.187Z,56.04
2019-04-25T12:23:41.175Z,55.98
2019-04-25T12:24:41.170Z,59.03
2019-04-25T12:25:41.150Z,56.72
2019-04-25T12:26:41.155Z,56.62
2019-04-25T12:27:41.128Z,57.10
2019-04-25T12:28:41.118Z,54.50
2019-04-25T12:29:41.106Z,54.18
2019-04-25T12:30:41.096Z,54.02
2019-04-25T12:31:41.108Z,54.91
2019-04-25T12:32:41.071Z,55.78
2019-04-25T12:33:41.064Z,55.40
2019-04-25T12:34:41.050Z,54.24
2019-04-25T12:35:41.037Z,52.98
2019-04-25T12:36:41.049Z,54.14
2019-04-25T12:37:41.023Z,54.53
2019-04-25T12:38:41.007Z,55.88
2019-04-25T12:39:40.995Z,55.01
2019-04-25T12:40:40.984Z,53.66
2019-04-25T12:41:40.973Z,53.20
2019-04-25T12:42:40.976Z,53.39
2019-04-25T12:43:40.951Z,54.14
2019-04-25T12:44:40.941Z,53.30
2019-04-25T12:45:40.929Z,52.72
2019-04-25T12:46:40.922Z,53.97
2019-04-25T12:47:40.933Z,52.04
2019-04-25T12:48:40.900Z,53.69
2019-04-25T12:49:40.888Z,52.94
2019-04-25T12:50:40.875Z,54.97
2019-04-25T12:51:40.866Z,54.22
2019-04-25T12:52:40.921Z,53.19
2019-04-25T12:53:40.846Z,51.90
2019-04-25T12:54:40.836Z,52.41
2019-04-25T12:55:40.826Z,51.98
2019-04-25T12:56:40.817Z,49.07
2019-04-25T12:57:40.921Z,46.04
2019-04-25T12:58:40.799Z,44.04
2019-04-25T12:59:40.791Z,42.68
2019-04-25T13:00:47.936Z,43.65
2019-04-25T13:01:40.771Z,42.97
2019-04-25T13:02:40.781Z,43.58
2019-04-25T13:03:40.752Z,44.07
2019-04-25T13:04:40.744Z,45.97
2019-04-25T13:05:40.740Z,45.12
2019-04-25T13:06:40.728Z,45.43
2019-04-25T13:07:40.746Z,46.26
2019-04-25T13:08:40.726Z,46.89
2019-04-25T13:09:40.705Z,47.36
2019-04-25T13:10:40.696Z,46.41
2019-04-25T13:11:40.695Z,45.75
2019-04-25T13:12:40.683Z,46.28
2019-04-25T13:13:40.693Z,45.02
2019-04-25T13:14:40.671Z,44.90
2019-04-25T13:15:40.661Z,44.96
2019-04-25T13:16:40.653Z,45.75
2019-04-25T13:17:40.655Z,47.28
2019-04-25T13:18:40.654Z,47.67
2019-04-25T13:19:40.630Z,46.80
2019-04-25T13:20:40.623Z,46.87
2019-04-25T13:21:40.617Z,47.26
2019-04-25T13:22:40.609Z,47.94
2019-04-25T13:23:40.618Z,45.42
2019-04-25T13:24:40.595Z,45.92
2019-04-25T13:25:40.584Z,48.47
2019-04-25T13:26:40.577Z,46.14
2019-04-25T13:27:40.571Z,44.34
2019-04-25T13:28:40.562Z,44.29
2019-04-25T13:29:40.571Z,42.41
2019-04-25T13:30:40.555Z,42.04
2019-04-25T13:31:40.540Z,42.11
2019-04-25T13:32:40.530Z,42.74
2019-04-25T13:33:40.526Z,44.68
2019-04-25T13:34:40.533Z,43.48
2019-04-25T13:35:40.512Z,42.06
2019-04-25T13:36:40.504Z,42.05
2019-04-25T13:37:40.499Z,44.09
2019-04-25T13:38:40.490Z,42.25
2019-04-25T13:39:40.518Z,42.83
2019-04-25T13:40:40.475Z,41.39
2019-04-25T13:41:40.470Z,41.13
2019-04-25T13:42:40.460Z,39.47
2019-04-25T13:43:40.452Z,41.90
2019-04-25T13:44:40.447Z,42.11
2019-04-25T13:45:40.456Z,43.33
2019-04-25T13:46:40.436Z,43.43
2019-04-25T13:47:40.425Z,42.63
2019-04-25T13:48:40.423Z,43.29
2019-04-25T13:49:40.414Z,43.85
2019-04-25T13:50:40.426Z,44.79
2019-04-25T13:51:40.398Z,45.40
2019-04-25T13:52:40.393Z,45.88
2019-04-25T13:53:40.387Z,45.88
2019-04-25T13:54:40.378Z,45.98
2019-04-25T13:55:40.371Z,44.84
2019-04-25T13:56:40.772Z,44.84
2019-04-25T13:57:40.356Z,44.74
2019-04-25T13:58:40.351Z,44.68
2019-04-25T13:59:40.344Z,44.13
2019-04-25T14:00:40.335Z,42.23
2019-04-25T14:01:40.342Z,42.21
2019-04-25T14:02:40.323Z,40.99
2019-04-25T14:03:40.313Z,40.13
2019-04-25T14:04:40.310Z,39.55
2019-04-25T14:05:40.310Z,39.43
2019-04-25T14:06:40.314Z,39.43
2019-04-25T14:07:40.288Z,39.45
2019-04-25T14:08:40.287Z,42.19
2019-04-25T14:09:40.277Z,43.08
2019-04-25T14:10:40.274Z,43.35
2019-04-25T14:11:40.264Z,44.61
2019-04-25T14:12:40.277Z,44.88
2019-04-25T14:13:40.257Z,44.86
2019-04-25T14:14:40.251Z,46.00
2019-04-25T14:15:40.243Z,47.94
2019-04-25T14:16:40.239Z,48.57
2019-04-25T14:17:40.266Z,48.44
2019-04-25T14:18:40.225Z,49.80
2019-04-25T14:19:40.217Z,50.38
2019-04-25T14:20:40.211Z,51.03
2019-04-25T14:21:40.207Z,49.70
2019-04-25T14:22:40.209Z,50.18
2019-04-25T14:23:40.192Z,49.80
2019-04-25T14:24:40.181Z,49.99
2019-04-25T14:25:40.175Z,51.23
2019-04-25T14:26:40.167Z,50.84
2019-04-25T14:27:40.192Z,50.18
2019-04-25T14:28:40.151Z,50.16
2019-04-25T14:29:40.137Z,51.03
2019-04-25T14:30:40.129Z,51.03
2019-04-25T14:31:45.853Z,50.91
2019-04-25T14:32:40.112Z,51.39
2019-04-25T14:33:40.121Z,51.49
2019-04-25T14:34:40.096Z,51.46
2019-04-25T14:35:40.093Z,52.23
2019-04-25T14:36:40.074Z,52.53
2019-04-25T14:37:40.067Z,52.23
2019-04-25T14:38:40.985Z,53.11
2019-04-25T14:39:40.049Z,52.14
2019-04-25T14:40:42.177Z,52.62
2019-04-25T14:41:40.033Z,52.72
2019-04-25T14:42:40.017Z,52.94
2019-04-25T14:43:40.010Z,52.72
2019-04-25T14:44:40.018Z,53.20
2019-04-25T14:45:44.457Z,52.81
2019-04-25T14:46:39.978Z,52.33
2019-04-25T14:47:39.971Z,53.01
2019-04-25T14:48:39.957Z,53.59
2019-04-25T14:49:39.962Z,52.91
2019-04-25T14:50:39.940Z,54.17
2019-04-25T14:51:39.927Z,54.07
2019-04-25T14:52:40.763Z,54.17
2019-04-25T14:53:39.912Z,55.13
2019-04-25T14:54:39.913Z,54.46
2019-04-25T14:55:39.885Z,54.36
2019-04-25T14:56:39.874Z,55.13
2019-04-25T14:57:39.866Z,55.33
2019-04-25T14:58:39.855Z,55.10
2019-04-25T14:59:39.865Z,55.78
2019-04-25T15:00:39.833Z,55.59
2019-04-25T15:01:44.903Z,55.10
2019-04-25T15:02:40.749Z,55.49
2019-04-25T15:03:39.801Z,55.88
2019-04-25T15:04:39.791Z,56.16
2019-04-25T15:05:42.176Z,55.98
2019-04-25T15:06:39.769Z,55.78
2019-04-25T15:07:40.681Z,55.68
2019-04-25T15:08:39.747Z,55.98
2019-04-25T15:09:39.739Z,55.98
2019-04-25T15:10:39.761Z,55.23
2019-04-25T15:11:39.714Z,54.94
2019-04-25T15:12:39.700Z,55.33
2019-04-25T15:13:39.691Z,56.20
2019-04-25T15:14:39.678Z,54.65
2019-04-25T15:15:39.683Z,55.45
2019-04-25T15:16:39.660Z,54.10
2019-04-25T15:17:46.356Z,55.16
2019-04-25T15:18:46.410Z,54.13
2019-04-25T15:19:39.622Z,54.32
2019-04-25T15:20:39.630Z,54.41
2019-04-25T15:21:39.603Z,53.06
2019-04-25T15:22:39.591Z,54.03
2019-04-25T15:23:39.577Z,54.77
2019-04-25T15:24:39.569Z,54.10
2019-04-25T15:25:39.560Z,54.00
2019-04-25T15:26:40.427Z,54.58
2019-04-25T15:27:39.537Z,54.10
2019-04-25T15:28:39.529Z,52.94
2019-04-25T15:29:40.354Z,53.03
2019-04-25T15:30:39.509Z,52.94
2019-04-25T15:31:39.505Z,57.19
2019-04-25T15:32:39.481Z,55.26
2019-04-25T15:33:39.477Z,54.87
2019-04-25T15:34:39.464Z,55.16
2019-04-25T15:35:39.465Z,54.39
2019-04-25T15:36:39.452Z,55.71
2019-04-25T15:37:39.423Z,55.33
2019-04-25T15:38:39.414Z,55.52
2019-04-25T15:39:39.404Z,56.10
2019-04-25T15:40:41.141Z,57.93
2019-04-25T15:41:39.401Z,56.84
2019-04-25T15:42:39.370Z,56.94
2019-04-25T15:43:39.359Z,57.23
2019-04-25T15:44:39.347Z,56.46
2019-04-25T15:45:39.336Z,56.16
2019-04-25T15:46:39.327Z,57.42
2019-04-25T15:47:39.329Z,58.29
2019-04-25T15:48:39.301Z,58.12
2019-04-25T15:49:39.292Z,57.52
2019-04-25T15:50:39.292Z,57.32
2019-04-25T15:51:39.271Z,56.56
2019-04-25T15:52:39.276Z,57.29
2019-04-25T15:53:40.240Z,57.49
2019-04-25T15:54:39.237Z,57.78
2019-04-25T15:55:39.232Z,58.94
2019-04-25T15:56:39.211Z,58.55
2019-04-25T15:57:39.222Z,58.23
2019-04-25T15:58:39.191Z,58.81
2019-04-25T15:59:39.180Z,58.14
2019-04-25T16:00:39.168Z,58.52
2019-04-25T16:01:39.170Z,58.88
2019-04-25T16:02:39.147Z,56.85
2019-04-25T16:03:39.150Z,57.05
2019-04-25T16:04:39.122Z,55.89
2019-04-25T16:05:39.112Z,55.99
2019-04-25T16:06:39.101Z,57.53
2019-04-25T16:07:39.087Z,56.88
2019-04-25T16:08:39.088Z,57.78
2019-04-25T16:09:39.255Z,56.40
2019-04-25T16:10:39.050Z,56.11
2019-04-25T16:11:39.039Z,57.17
2019-04-25T16:12:39.032Z,56.98
2019-04-25T16:13:39.029Z,56.79
2019-04-25T16:14:39.032Z,55.24
2019-04-25T16:15:41.326Z,55.34
2019-04-25T16:16:38.982Z,56.01
2019-04-25T16:17:38.972Z,57.07
2019-04-25T16:18:38.960Z,54.93
2019-04-25T16:19:38.957Z,56.37
2019-04-25T16:20:38.935Z,55.31
2019-04-25T16:21:38.919Z,55.41
2019-04-25T16:22:38.916Z,54.93
2019-04-25T16:23:38.899Z,53.19
2019-04-25T16:24:38.902Z,54.74
2019-04-25T16:25:38.879Z,55.29
2019-04-25T16:26:38.863Z,54.42
2019-04-25T16:27:39.016Z,54.06
2019-04-25T16:28:38.837Z,54.06
2019-04-25T16:29:38.844Z,53.96
2019-04-25T16:30:38.814Z,53.00
2019-04-25T16:31:38.803Z,53.09
2019-04-25T16:32:38.790Z,53.87
2019-04-25T16:33:38.778Z,53.00
2019-04-25T16:34:38.767Z,54.35
2019-04-25T16:35:38.778Z,53.29
2019-04-25T16:36:39.535Z,52.71
2019-04-25T16:37:38.737Z,52.06
2019-04-25T16:38:39.008Z,50.69
2019-04-25T16:39:38.706Z,50.01
2019-04-25T16:40:38.713Z,50.67
2019-04-25T16:41:40.352Z,51.07
2019-04-25T16:42:39.726Z,49.27
2019-04-25T16:43:39.033Z,49.27
2019-04-25T16:44:38.652Z,50.13
2019-04-25T16:45:38.654Z,50.38
2019-04-25T16:46:38.626Z,51.58
2019-04-25T16:47:38.616Z,51.87
2019-04-25T16:48:39.169Z,53.03
2019-04-25T16:49:39.143Z,52.81
2019-04-25T16:50:38.604Z,53.13
2019-04-25T16:51:38.577Z,53.13
2019-04-25T16:52:38.583Z,53.22
2019-04-25T16:53:38.658Z,53.09
2019-04-25T16:54:38.541Z,53.39
2019-04-25T16:55:38.829Z,52.42
2019-04-25T16:56:38.530Z,53.29
2019-04-25T16:57:39.545Z,53.74
2019-04-25T16:58:38.693Z,54.52
2019-04-25T16:59:38.490Z,54.80
2019-04-25T17:00:38.495Z,54.32
2019-04-25T17:01:38.646Z,54.49
2019-04-25T17:02:40.838Z,54.97
2019-04-25T17:03:38.443Z,54.87
2019-04-25T17:04:38.439Z,54.85
2019-04-25T17:05:39.262Z,55.04
2019-04-25T17:06:38.422Z,54.94
2019-04-25T17:07:38.498Z,56.10
2019-04-25T17:08:38.387Z,56.84
2019-04-25T17:09:38.573Z,56.74
2019-04-25T17:10:39.443Z,58.18
2019-04-25T17:11:46.950Z,57.77
2019-04-25T17:12:38.559Z,57.97
2019-04-25T17:13:38.319Z,58.64
2019-04-25T17:14:38.305Z,58.83
2019-04-25T17:15:38.404Z,58.92
2019-04-25T17:16:39.124Z,59.69
2019-04-25T17:17:38.269Z,60.56
2019-04-25T17:18:38.320Z,59.79
2019-04-25T17:19:38.959Z,60.24
2019-04-25T17:20:38.227Z,60.63
2019-04-25T17:21:39.111Z,60.63
2019-04-25T17:22:38.211Z,60.82
2019-04-25T17:23:38.194Z,60.82
2019-04-25T17:24:39.222Z,60.82
2019-04-25T17:25:38.160Z,61.40
2019-04-25T17:26:38.168Z,61.68
2019-04-25T17:27:39.112Z,61.11
2019-04-25T17:28:39.072Z,61.49
2019-04-25T17:29:38.109Z,61.58
2019-04-25T17:30:38.095Z,61.68
2019-04-25T17:31:38.903Z,61.55
2019-04-25T17:32:50.295Z,61.84
2019-04-25T17:33:38.065Z,62.52
2019-04-25T17:34:38.878Z,62.23
2019-04-25T17:35:38.831Z,61.65
2019-04-25T17:36:38.649Z,62.23
2019-04-25T17:37:38.499Z,62.23
2019-04-25T17:38:37.985Z,62.39
2019-04-25T17:39:37.969Z,62.42
2019-04-25T17:40:37.970Z,62.68
2019-04-25T17:41:38.393Z,62.77
2019-04-25T17:42:38.905Z,62.29
2019-04-25T17:43:38.506Z,62.39
2019-04-25T17:44:38.392Z,62.87
2019-04-25T17:45:37.889Z,63.73
2019-04-25T17:46:37.873Z,63.92
2019-04-25T17:47:38.610Z,63.92
2019-04-25T17:48:38.274Z,64.02
2019-04-25T17:49:37.829Z,63.73
2019-04-25T17:50:37.816Z,63.73
2019-04-25T17:51:37.800Z,63.83
2019-04-25T17:52:38.264Z,63.73
2019-04-25T17:53:37.784Z,64.66
2019-04-25T17:54:38.810Z,64.95
2019-04-25T17:55:37.737Z,65.23
2019-04-25T17:56:38.575Z,64.85
2019-04-25T17:57:37.899Z,65.23
2019-04-25T17:58:37.711Z,65.43
2019-04-25T17:59:37.687Z,65.05
2019-04-25T18:00:37.892Z,66.10
2019-04-25T18:01:37.975Z,66.19
2019-04-25T18:02:37.640Z,66.49
2019-04-25T18:03:37.639Z,66.39
2019-04-25T18:04:38.277Z,65.91
2019-04-25T18:05:37.596Z,66.77